M I D A S
Marine Information and Data Acquisition System
Tripno 673 of the Zeeleeuw from 2004-03-22 09:02:38 to 2004-03-22 14:32:03
Back to CruiseResearch ActivitiesStationsMapUnderway DataData graphs

EquipmentUnitsComment
TimeDGPSUTC
LatitudeDGPSDM.mWGS84
LongitudeDGPSDM.mWGS84
HeadingGyrodeg 
SOGDGPSknotsSpeed over ground
COGDGPSdegCourse over ground
DepthEcho soundermeters200 kHz
Missing or incorrect values are displayed as -999
Navigation data collected by the RV Zeeleeuw from 2004-03-22 09:02:38 to 2004-03-22 14:32:03
                                                                                    Next 1000 lines
Time Latitude Longitude Heading SOG COG Depth
2004-03-22 09:02:46 51°13.592 2°56.107 124.6 0.1 175 6.2
2004-03-22 09:02:50 51°13.592 2°56.106 123.6 0.1 186 6.2
2004-03-22 09:02:55 51°13.592 2°56.106 122.4 0.1 181 6.2
2004-03-22 09:03:00 51°13.592 2°56.105 121.2 0.1 189 6.1
2004-03-22 09:03:05 51°13.592 2°56.105 120 0.1 186 6.3
2004-03-22 09:03:10 51°13.592 2°56.105 118.6 0.1 186 6.3
2004-03-22 09:03:14 51°13.592 2°56.105 117.3 0.1 185 6.3
2004-03-22 09:03:20 51°13.592 2°56.105 115.9 0.1 185 6.2
2004-03-22 09:03:26 51°13.591 2°56.105 114.4 0.1 214 6.3
2004-03-22 09:03:30 51°13.591 2°56.105 113.3 0.2 273 6.3
2004-03-22 09:03:34 51°13.592 2°56.104 112.4 0.5 288 6.3
2004-03-22 09:03:40 51°13.592 2°56.102 112.1 0.8 289 6.3
2004-03-22 09:03:46 51°13.593 2°56.099 112 1.1 286 6.3
2004-03-22 09:03:50 51°13.593 2°56.096 112 1.7 290 6.3
2004-03-22 09:03:56 51°13.594 2°56.091 111.9 1.8 288 6.3
2004-03-22 09:04:02 51°13.595 2°56.085 112.4 2 289 -999
2004-03-22 09:04:06 51°13.596 2°56.082 113.1 2.1 288 -999
2004-03-22 09:04:11 51°13.597 2°56.076 114 2.4 290 -999
2004-03-22 09:04:16 51°13.598 2°56.071 115.1 2.5 290 -999
2004-03-22 09:04:20 51°13.599 2°56.067 116 2.7 291 -999
2004-03-22 09:04:26 51°13.6 2°56.06 116.8 2.8 293 -999
2004-03-22 09:04:30 51°13.602 2°56.055 117.4 2.9 292 -999
2004-03-22 09:04:36 51°13.604 2°56.048 118.1 3 293 -999
2004-03-22 09:04:40 51°13.605 2°56.042 118.9 3.2 293 -999
2004-03-22 09:04:46 51°13.607 2°56.035 119.9 3.2 294 -999
2004-03-22 09:04:51 51°13.609 2°56.028 120.7 3.4 295 -999
2004-03-22 09:04:56 51°13.612 2°56.021 121.5 3.6 296 -999
2004-03-22 09:05:01 51°13.614 2°56.013 122.5 3.7 297 -999
2004-03-22 09:05:06 51°13.617 2°56.006 123.5 3.8 299 -999
2004-03-22 09:05:11 51°13.62 2°55.998 124.7 3.9 300 -999
2004-03-22 09:05:16 51°13.623 2°55.991 125.5 4 301 -999
2004-03-22 09:05:20 51°13.625 2°55.985 125.8 4 301 -999
2004-03-22 09:05:26 51°13.629 2°55.975 126 4.1 302 -999
2004-03-22 09:05:30 51°13.631 2°55.969 126.1 4.1 302 -999
2004-03-22 09:05:36 51°13.635 2°55.96 126.1 4.2 303 -999
2004-03-22 09:05:41 51°13.638 2°55.952 125.7 4.2 302 -999
2004-03-22 09:05:46 51°13.641 2°55.944 125.1 4.2 301 -999
2004-03-22 09:05:51 51°13.644 2°55.936 124.3 4.2 301 -999
2004-03-22 09:05:56 51°13.647 2°55.928 123.6 4.2 300 -999
2004-03-22 09:06:00 51°13.649 2°55.922 122.9 4.2 300 -999
2004-03-22 09:06:06 51°13.653 2°55.912 122.2 4.3 299 -999
2004-03-22 09:06:10 51°13.655 2°55.905 121.4 4.4 299 -999
2004-03-22 09:06:16 51°13.658 2°55.895 120.5 4.5 298 -999
2004-03-22 09:06:21 51°13.661 2°55.886 119.6 4.6 297 -999
2004-03-22 09:06:26 51°13.664 2°55.876 118.3 4.6 296 -999
2004-03-22 09:06:31 51°13.667 2°55.867 117.2 4.7 294 -999
2004-03-22 09:06:36 51°13.669 2°55.857 115.9 4.7 294 -999
2004-03-22 09:06:41 51°13.672 2°55.848 114.7 4.6 292 -999
2004-03-22 09:06:46 51°13.674 2°55.839 113.5 4.5 291 -999
2004-03-22 09:06:51 51°13.676 2°55.829 112.5 4.4 290 -999
2004-03-22 09:06:56 51°13.678 2°55.821 111.3 4.3 289 -999
2004-03-22 09:07:01 51°13.68 2°55.812 109.9 4.2 288 -999
2004-03-22 09:07:06 51°13.681 2°55.804 108.8 4 287 -999
2004-03-22 09:07:11 51°13.683 2°55.797 107.9 3.6 287 -999
2004-03-22 09:07:16 51°13.684 2°55.79 106.6 3.3 285 -999
2004-03-22 09:07:20 51°13.685 2°55.785 105.3 3 286 10.7
2004-03-22 09:07:26 51°13.686 2°55.779 103.7 2.6 284 11.8
2004-03-22 09:07:30 51°13.686 2°55.775 102.3 2.4 284 12
2004-03-22 09:07:34 51°13.687 2°55.772 100.5 2 283 12.1
2004-03-22 09:07:40 51°13.687 2°55.768 98.6 1.7 283 12.2
2004-03-22 09:07:46 51°13.688 2°55.766 96.2 1.4 284 12.3
2004-03-22 09:07:50 51°13.688 2°55.765 94 0.6 296 12.5
2004-03-22 09:07:56 51°13.689 2°55.765 90.5 0.3 335 12.5
2004-03-22 09:08:00 51°13.689 2°55.766 85.9 0.4 36 12.5
2004-03-22 09:08:06 51°13.69 2°55.768 79.1 0.8 54 12.4
2004-03-22 09:08:10 51°13.691 2°55.77 74 1.2 53 12.4
2004-03-22 09:08:14 51°13.692 2°55.771 67.6 1.1 49 12.7
2004-03-22 09:08:20 51°13.693 2°55.773 63.1 0.8 48 12.5
2004-03-22 09:08:26 51°13.693 2°55.772 58.9 0.2 3 12.4
2004-03-22 09:08:30 51°13.693 2°55.772 55.6 0.5 240 12.5
2004-03-22 09:08:35 51°13.692 2°55.77 52.8 0.9 237 12.5
2004-03-22 09:08:40 51°13.691 2°55.767 50.6 1.3 233 12.5
2004-03-22 09:08:44 51°13.689 2°55.764 48.6 1.7 230 12.5
2004-03-22 09:08:50 51°13.687 2°55.76 46.6 2 228 -999
2004-03-22 09:08:56 51°13.684 2°55.756 44.1 2.2 224 -999
2004-03-22 09:09:01 51°13.682 2°55.753 42.3 2.1 222 -999
2004-03-22 09:09:06 51°13.68 2°55.75 41.2 1.9 223 -999
2004-03-22 09:09:10 51°13.68 2°55.749 39.7 0.9 226 -999
2004-03-22 09:09:16 51°13.679 2°55.748 36.3 0.4 255 -999
2004-03-22 09:09:20 51°13.68 2°55.748 32.3 0.6 358 -999
2004-03-22 09:09:26 51°13.682 2°55.748 25.3 0.8 3 -999
2004-03-22 09:09:30 51°13.684 2°55.749 19.9 1.6 3 -999
2004-03-22 09:09:36 51°13.687 2°55.749 12.8 2.1   -999
2004-03-22 09:09:40 51°13.69 2°55.748 4.9 2.6 355 -999
2004-03-22 09:09:46 51°13.695 2°55.746 356.2 2.7 342 -999
2004-03-22 09:09:50 51°13.698 2°55.745 348.3 2.7 341 -999
2004-03-22 09:09:56 51°13.702 2°55.741 344.6 3 336 -999
2004-03-22 09:10:00 51°13.706 2°55.738 340.6 3.3 333 12.7
2004-03-22 09:10:06 51°13.711 2°55.733 338.1 3.7 330 11.7
2004-03-22 09:10:10 51°13.715 2°55.729 336.4 3.9 329 10.9
2004-03-22 09:10:15 51°13.72 2°55.724 335.5 4.4 328 10.9
2004-03-22 09:10:20 51°13.726 2°55.719 335.4 4.6 329 10
2004-03-22 09:10:25 51°13.732 2°55.713 335.9 5 330 9.5
2004-03-22 09:10:31 51°13.74 2°55.706 336.1 5.2 331 9.2
2004-03-22 09:10:35 51°13.745 2°55.702 336.2 5.5 331 9.4
2004-03-22 09:10:41 51°13.754 2°55.694 336.7 5.7 332 9.1
2004-03-22 09:10:45 51°13.76 2°55.689 337.3 6 332 8.9
2004-03-22 09:10:50 51°13.767 2°55.683 337.7 6.1 333 8.9
2004-03-22 09:10:56 51°13.777 2°55.675 338.2 6.3 333 8.8
2004-03-22 09:11:01 51°13.785 2°55.669 338.7 6.5 333 9
2004-03-22 09:11:05 51°13.791 2°55.664 338.9 6.6 334 9
2004-03-22 09:11:11 51°13.801 2°55.656 339.4 6.7 334 9.2
2004-03-22 09:11:15 51°13.808 2°55.651 339.8 6.8 334 9.2
2004-03-22 09:11:21 51°13.819 2°55.643 340.4 6.9 335 9.3
2004-03-22 09:11:25 51°13.826 2°55.638 340.4 6.9 335 9.3
2004-03-22 09:11:31 51°13.836 2°55.63 340 7.1 336 9.3
2004-03-22 09:11:36 51°13.845 2°55.623 340.1 7.1 335 9.4
2004-03-22 09:11:40 51°13.853 2°55.618 340.5 7.2 336 9
2004-03-22 09:11:45 51°13.862 2°55.612 341 7.3 336 9
2004-03-22 09:11:51 51°13.873 2°55.604 341.2 7.3 337 9
2004-03-22 09:11:55 51°13.881 2°55.599 341.6 7.3 337 9
2004-03-22 09:12:01 51°13.892 2°55.591 341.8 7.4 336 8.9
2004-03-22 09:12:05 51°13.899 2°55.586 341.1 7.4 335 9
2004-03-22 09:12:11 51°13.911 2°55.577 340.4 7.4 335 8.9
2004-03-22 09:12:16 51°13.92 2°55.57 340.1 7.5 334 9
2004-03-22 09:12:21 51°13.93 2°55.563 339.9 7.5 335 9.1
2004-03-22 09:12:25 51°13.937 2°55.557 340 7.5 335 8.8
2004-03-22 09:12:31 51°13.949 2°55.549 340.1 7.6 335 9.1
2004-03-22 09:12:35 51°13.956 2°55.543 340.1 7.6 335 9.3
2004-03-22 09:12:41 51°13.968 2°55.535 340.1 7.6 335 9.4
2004-03-22 09:12:45 51°13.975 2°55.529 340.4 7.6 335 9.4
2004-03-22 09:12:51 51°13.987 2°55.521 340.6 7.6 336 9.1
2004-03-22 09:12:56 51°13.996 2°55.514 340.8 7.6 335 9.4
2004-03-22 09:13:01 51°14.006 2°55.507 340.9 7.6 336 9.5
2004-03-22 09:13:05 51°14.014 2°55.501 340.9 7.6 335 9.6
2004-03-22 09:13:11 51°14.025 2°55.493 340.9 7.6 336 9.7
2004-03-22 09:13:15 51°14.033 2°55.488 340.9 7.6 335 10
2004-03-22 09:13:21 51°14.044 2°55.479 340.7 7.6 335 10
2004-03-22 09:13:25 51°14.052 2°55.474 340.6 7.6 336 10.2
2004-03-22 09:13:31 51°14.064 2°55.466 341.2 7.6 337 10.2
2004-03-22 09:13:35 51°14.071 2°55.461 341.8 7.6 337 10.3
2004-03-22 09:13:41 51°14.083 2°55.452 341.8 7.6 336 10.2
2004-03-22 09:13:45 51°14.091 2°55.447 340.9 7.6 336 10.3
2004-03-22 09:13:51 51°14.103 2°55.437 340.3 8.1 334 10.3
2004-03-22 09:13:56 51°14.113 2°55.429 339.8 8.3 334 10.3
2004-03-22 09:14:00 51°14.122 2°55.422 339.2 8.6 333 10.3
2004-03-22 09:14:05 51°14.133 2°55.413 337.9 8.8 332 10.3
2004-03-22 09:14:11 51°14.146 2°55.401 337.4 9 332 10.2
2004-03-22 09:14:15 51°14.156 2°55.393 337.2 9.2 331 10.2
2004-03-22 09:14:21 51°14.169 2°55.38 336.2 9.2 331 10.2
2004-03-22 09:14:25 51°14.178 2°55.371 334.7 9.5 328 10.2
2004-03-22 09:14:29 51°14.187 2°55.362 333.2 9.6 327 10.2
2004-03-22 09:14:36 51°14.202 2°55.344 331.5 9.7 324 10.1
2004-03-22 09:14:41 51°14.213 2°55.331 330.1 9.8 324 10.2
2004-03-22 09:14:45 51°14.221 2°55.321 328.8 9.8 323 10.2
2004-03-22 09:14:51 51°14.234 2°55.304 327.1 9.9 321 10
2004-03-22 09:14:55 51°14.242 2°55.292 325.5 10.1 318 10.2
2004-03-22 09:15:01 51°14.255 2°55.273 323.7 10.1 318 10.2
2004-03-22 09:15:05 51°14.263 2°55.26 322.5 10.3 316 10.1
2004-03-22 09:15:11 51°14.275 2°55.24 321.2 10.3 314 10
2004-03-22 09:15:16 51°14.285 2°55.222 319.2 10.5 311 10.2
2004-03-22 09:15:21 51°14.295 2°55.204 316.8 10.5 310 10.1
2004-03-22 09:15:25 51°14.302 2°55.19 315.4 10.5 310 10.1
2004-03-22 09:15:31 51°14.313 2°55.168 315.2 10.6 310 10.2
2004-03-22 09:15:36 51°14.323 2°55.15 315 10.7 309 10.3
2004-03-22 09:15:41 51°14.332 2°55.131 314.1 10.8 308 10
2004-03-22 09:15:45 51°14.34 2°55.116 314.1 11 310 10.2
2004-03-22 09:15:51 51°14.352 2°55.094 315 11 310 9.9
2004-03-22 09:15:55 51°14.361 2°55.08 316.4 11 314 9.9
2004-03-22 09:16:01 51°14.374 2°55.061 319.9 11 314 10.1
2004-03-22 09:16:05 51°14.383 2°55.047 323.2 11.1 318 10.1
2004-03-22 09:16:11 51°14.397 2°55.027 323.5 11.2 317 10.2
2004-03-22 09:16:16 51°14.408 2°55.009 322.7 11.4 315 10.2
2004-03-22 09:16:21 51°14.419 2°54.991 322.2 11.4 315 10.4
2004-03-22 09:16:26 51°14.43 2°54.972 322.9 11.5 315 10.1
2004-03-22 09:16:31 51°14.441 2°54.954 323.3 11.6 314 10
2004-03-22 09:16:36 51°14.452 2°54.935 323.4 11.6 313 9.8
2004-03-22 09:16:41 51°14.463 2°54.916 323.4 11.6 313 9.6
2004-03-22 09:16:45 51°14.472 2°54.901 323.1 11.6 313 9.5
2004-03-22 09:16:51 51°14.486 2°54.878 323.1 11.6 313 9.4
2004-03-22 09:16:55 51°14.495 2°54.863 323.5 11.6 314 9.6
2004-03-22 09:17:01 51°14.508 2°54.841 323.8 11.5 313 9.3
2004-03-22 09:17:05 51°14.517 2°54.827 324.3 11.6 314 9.4
2004-03-22 09:17:11 51°14.531 2°54.806 324.9 11.5 315 9.5
2004-03-22 09:17:16 51°14.543 2°54.79 326.7 11.4 320 9.1
2004-03-22 09:17:21 51°14.556 2°54.775 330 11.4 321 9.3
2004-03-22 09:17:25 51°14.566 2°54.764 333.4 11.3 325 9.2
2004-03-22 09:17:31 51°14.582 2°54.748 335.5 11.3 326 9.2
2004-03-22 09:17:35 51°14.593 2°54.736 337.5 11.5 327 9.3
2004-03-22 09:17:41 51°14.609 2°54.72 338.2 11.4 328 9.1
2004-03-22 09:17:45 51°14.619 2°54.71 338.8 11.3 329 9
2004-03-22 09:17:51 51°14.635 2°54.695 339.2 11.3 329 9.2
2004-03-22 09:17:55 51°14.646 2°54.685 339.6 11.3 329 9
2004-03-22 09:18:01 51°14.661 2°54.669 339.8 11.3 329 9.1
2004-03-22 09:18:05 51°14.671 2°54.658 339.1 10.8 325 9.1
2004-03-22 09:18:11 51°14.685 2°54.64 336.4 10.5 323 9
2004-03-22 09:18:15 51°14.693 2°54.628 332.8 9.8 318 9.3
2004-03-22 09:18:21 51°14.703 2°54.611 328.7 9.2 315 9.1
2004-03-22 09:18:25 51°14.709 2°54.599 325.1 9.2 315 9.3
2004-03-22 09:18:31 51°14.716 2°54.582 320.8 8 307 9.2
2004-03-22 09:18:36 51°14.721 2°54.569 316.7 7.2 301 9.2
2004-03-22 09:18:40 51°14.724 2°54.559 312.6 6.8 299 9.2
2004-03-22 09:18:45 51°14.727 2°54.546 310 6.4 295 9.6
2004-03-22 09:18:51 51°14.73 2°54.533 307 5.6 292 9.4
2004-03-22 09:18:56 51°14.732 2°54.523 304 4.9 285 9.7
2004-03-22 09:19:01 51°14.733 2°54.514 301.5 4.4 286 9.5
2004-03-22 09:19:05 51°14.733 2°54.508 299 3.7 277 9.5
2004-03-22 09:19:09 51°14.733 2°54.502 296.5 3.2 276 9.5
2004-03-22 09:19:16 51°14.733 2°54.494 294.5 2.8 267 9.4
2004-03-22 09:19:21 51°14.733 2°54.488 292.8 2.6 267 9.5
2004-03-22 09:19:25 51°14.733 2°54.484 291.2 2.6 265 9.6
2004-03-22 09:19:31 51°14.732 2°54.477 289.9 2.5 262 9.8
2004-03-22 09:19:35 51°14.732 2°54.474 289 2.3 261 9.7
2004-03-22 09:19:41 51°14.731 2°54.468 287.5 2.3 257 9.7
2004-03-22 09:19:46 51°14.73 2°54.463 286.2 2.3 255 9.8
2004-03-22 09:19:51 51°14.729 2°54.458 285.4 2.2 252 9.6
2004-03-22 09:19:56 51°14.728 2°54.454 283.9 2 256 9.7
2004-03-22 09:20:01 51°14.728 2°54.45 282.6 2.1 249 9.6
2004-03-22 09:20:05 51°14.727 2°54.446 281.5 2 250 9.8
2004-03-22 09:20:11 51°14.725 2°54.442 280.5 2 241 9.7
2004-03-22 09:20:16 51°14.724 2°54.439 279.9 1.7 246 9.6
2004-03-22 09:20:21 51°14.723 2°54.435 278.9 1.9 241 9.6
2004-03-22 09:20:26 51°14.721 2°54.432 277.4 1.8 237 9.7
2004-03-22 09:20:29 51°14.72 2°54.43 276.3 1.7 236 9.7
2004-03-22 09:20:35 51°14.719 2°54.427 276.1 1.6 236 9.7
2004-03-22 09:20:41 51°14.717 2°54.423 275.5 1.6 230 9.7
2004-03-22 09:20:45 51°14.716 2°54.421 275 1.4 231 9.8
2004-03-22 09:20:51 51°14.714 2°54.418 274.2 1.6 227 9.9
2004-03-22 09:20:55 51°14.713 2°54.416 272.9 1.5 226 9.9
2004-03-22 09:21:01 51°14.711 2°54.414 272.1 1.5 221 10
2004-03-22 09:21:05 51°14.71 2°54.412 271.8 1.5 220 9.9
2004-03-22 09:21:11 51°14.708 2°54.41 271.1 1.5 220 9.8
2004-03-22 09:21:15 51°14.707 2°54.409 269.6 1.3 212 9.7
2004-03-22 09:21:21 51°14.705 2°54.408 268.1 1.4 207 9.8
2004-03-22 09:21:25 51°14.703 2°54.407 266.4 1.3 212 9.6
2004-03-22 09:21:31 51°14.701 2°54.406 264.6 1.3 212 9.6
2004-03-22 09:21:35 51°14.699 2°54.405 261.9 1.2 200 9.6
2004-03-22 09:21:39 51°14.698 2°54.405 259 1.3 191 9.7
2004-03-22 09:21:46 51°14.696 2°54.404 257.1 1.1 198 9.6
2004-03-22 09:21:51 51°14.694 2°54.404 255.4 1.2 189 9.7
2004-03-22 09:21:55 51°14.693 2°54.404 252.6 1.2 190 9.8
2004-03-22 09:22:01 51°14.691 2°54.403 249.9 1.2 186 10
2004-03-22 09:22:06 51°14.69 2°54.403 247.8 1 190 10.1
2004-03-22 09:22:11 51°14.689 2°54.403 246.9 1 176 10
2004-03-22 09:22:16 51°14.687 2°54.403 243.3 1.1 181 9.7
2004-03-22 09:22:21 51°14.686 2°54.403 240.4 0.9 193 9.7
2004-03-22 09:22:25 51°14.685 2°54.403 237.8 1 183 9.6
2004-03-22 09:22:31 51°14.684 2°54.403 235.4 0.9 181 9.8
2004-03-22 09:22:36 51°14.682 2°54.403 232.6 0.9 186 9.9
2004-03-22 09:22:41 51°14.681 2°54.403 230.2 0.9 186 10
2004-03-22 09:22:45 51°14.68 2°54.402 228.5 1 180 10.1
2004-03-22 09:22:51 51°14.679 2°54.402 227.2 0.9 191 10
2004-03-22 09:22:56 51°14.678 2°54.402 225.7 0.8 201 9.8
2004-03-22 09:23:01 51°14.676 2°54.402 223.3 0.9 181 9.8
2004-03-22 09:23:05 51°14.675 2°54.401 221.5 0.9 192 9.9
2004-03-22 09:23:11 51°14.673 2°54.401 220.2 0.9 201 9.9
2004-03-22 09:23:15 51°14.673 2°54.401 218.6 1 173 9.8
2004-03-22 09:23:21 51°14.671 2°54.4 216.7 0.9 190 9.9
2004-03-22 09:23:25 51°14.67 2°54.401 215.4 0.9 185 10
2004-03-22 09:23:31 51°14.668 2°54.4 214.1 1 185 10
2004-03-22 09:23:35 51°14.667 2°54.4 212.6 1 176 9.9
2004-03-22 09:23:41 51°14.666 2°54.399 210.8 1 198 9.9
2004-03-22 09:23:45 51°14.665 2°54.399 209 1 182 9.8
2004-03-22 09:23:51 51°14.663 2°54.399 207.8 0.9 185 9.8
2004-03-22 09:23:55 51°14.662 2°54.398 205.6 1.2 193 9.7
2004-03-22 09:24:00 51°14.661 2°54.398 204.6 1.1 181 9.8
2004-03-22 09:24:05 51°14.66 2°54.398 203.6 0.9 198 9.7
2004-03-22 09:24:11 51°14.658 2°54.397 202 1 193 9.9
2004-03-22 09:24:16 51°14.657 2°54.397 200.8 1 195 10
2004-03-22 09:24:21 51°14.655 2°54.396 200 1 198 10
2004-03-22 09:24:25 51°14.654 2°54.396 198.7 1 185 10.1
2004-03-22 09:24:31 51°14.653 2°54.396 197.4 0.9 187 10
2004-03-22 09:24:35 51°14.652 2°54.395 195.9 1 193 10.1
2004-03-22 09:24:40 51°14.65 2°54.395 194.4 1 191 10.1
2004-03-22 09:24:45 51°14.649 2°54.395 194 1 183 10.1
2004-03-22 09:24:51 51°14.647 2°54.394 193.7 1 200 9.9
2004-03-22 09:24:55 51°14.646 2°54.393 193 1 189 10.1
2004-03-22 09:25:01 51°14.645 2°54.393 192.8 1.1 193 10
2004-03-22 09:25:06 51°14.643 2°54.393 192.1 1.2 193 10
2004-03-22 09:25:11 51°14.64 2°54.392 191.1 1.9 191 10
2004-03-22 09:25:16 51°14.636 2°54.392 189.8 2.3 187 10
2004-03-22 09:25:21 51°14.633 2°54.391 185.7 2.5 186 10
2004-03-22 09:25:26 51°14.628 2°54.391 182.1 3 180 10
2004-03-22 09:25:31 51°14.624 2°54.392 178 3.2 176 9.9
2004-03-22 09:25:35 51°14.62 2°54.393 172 3.5 168 9.7
2004-03-22 09:25:41 51°14.613 2°54.395 164.7 3.5 168 9.7
2004-03-22 09:25:45 51°14.61 2°54.398 156.6 3.9 160 9.9
2004-03-22 09:25:51 51°14.604 2°54.403 150.7 4 154 10
2004-03-22 09:25:56 51°14.599 2°54.409 143.1 4.1 147 10.2
2004-03-22 09:26:01 51°14.595 2°54.415 134.6 4.1 141 10.4
2004-03-22 09:26:05 51°14.593 2°54.421 126.5 3.9 128 10.5
2004-03-22 09:26:11 51°14.59 2°54.43 119.1 4 126 10.5
2004-03-22 09:26:16 51°14.588 2°54.438 111.8 3.8 110 10.5
2004-03-22 09:26:20 51°14.587 2°54.444 103.1 3.8 107 10.4
2004-03-22 09:26:27 51°14.587 2°54.456 95 3.8 107 10.3
2004-03-22 09:26:31 51°14.588 2°54.462 87.1 3.7 81 10
2004-03-22 09:26:36 51°14.59 2°54.47 81.4 3.6 73 10
2004-03-22 09:26:41 51°14.592 2°54.477 73.3 3.7 68 10
2004-03-22 09:26:45 51°14.595 2°54.483 63.5 3.6 59 9.9
2004-03-22 09:26:51 51°14.599 2°54.489 55.7 3.7 47 9.8
2004-03-22 09:26:55 51°14.603 2°54.493 48.6 3.7 33 9.7
2004-03-22 09:27:01 51°14.608 2°54.497 41.4 3.8 27 9.8
2004-03-22 09:27:06 51°14.613 2°54.499 33 3.9 17 9.8
2004-03-22 09:27:11 51°14.619 2°54.5 27.2 3.9 12 9.6
2004-03-22 09:27:16 51°14.625 2°54.499 17.9 4.1 358 9.4
2004-03-22 09:27:21 51°14.631 2°54.498 9.8 4.2 350 9.3
2004-03-22 09:27:25 51°14.635 2°54.495 3.6 4.3 341 9.6
2004-03-22 09:27:31 51°14.642 2°54.489 353.4 4.5 334 9.6
2004-03-22 09:27:35 51°14.647 2°54.484 346 5.1 326 9.6
2004-03-22 09:27:41 51°14.654 2°54.474 337.9 5.6 321 9.7
2004-03-22 09:27:45 51°14.66 2°54.466 333.3 6.5 320 9.9
2004-03-22 09:27:51 51°14.669 2°54.455 333 6.5 320 10
2004-03-22 09:27:55 51°14.676 2°54.448 335.5 7.4 325 9.7
2004-03-22 09:28:01 51°14.688 2°54.437 338.9 7.9 329 9.7
2004-03-22 09:28:05 51°14.697 2°54.43 341 8.6 332 9.9
2004-03-22 09:28:11 51°14.71 2°54.42 343.3 8.7 333 9.9
2004-03-22 09:28:15 51°14.72 2°54.414 345.8 9.2 337 9.7
2004-03-22 09:28:21 51°14.735 2°54.404 347.7 9.4 337 9.6
2004-03-22 09:28:25 51°14.745 2°54.397 349.1 9.9 338 9.6
2004-03-22 09:28:31 51°14.762 2°54.389 350.1 10.1 340 9.1
2004-03-22 09:28:35 51°14.772 2°54.383 351.1 10.3 341 9.6
2004-03-22 09:28:41 51°14.789 2°54.374 351.7 10.5 342 9.4
2004-03-22 09:28:45 51°14.801 2°54.368 351.6 10.8 341 9.3
2004-03-22 09:28:51 51°14.818 2°54.358 351.5 11 341 9.4
2004-03-22 09:28:55 51°14.83 2°54.352 351.5 11.3 341 9.7
2004-03-22 09:29:01 51°14.849 2°54.341 351.8 11.8 341 9.1
2004-03-22 09:29:05 51°14.862 2°54.334 351.8 12 341 9
2004-03-22 09:29:11 51°14.88 2°54.32 349.6 12.2 335 9
2004-03-22 09:29:16 51°14.895 2°54.307 346.7 12.4 333 9
2004-03-22 09:29:21 51°14.91 2°54.294 344.2 12.4 332 8.7
2004-03-22 09:29:25 51°14.922 2°54.284 341.9 12.4 330 8.4
2004-03-22 09:29:31 51°14.94 2°54.266 341.1 12.5 328 8.4
2004-03-22 09:29:36 51°14.955 2°54.252 339.5 12.5 329 8.3
2004-03-22 09:29:41 51°14.969 2°54.237 339.4 12.5 328 8
2004-03-22 09:29:45 51°14.981 2°54.225 338.9 12.6 328 8.2
2004-03-22 09:29:51 51°14.999 2°54.207 338.6 12.7 327 8
2004-03-22 09:29:56 51°15.014 2°54.192 338.4 12.7 328 8
2004-03-22 09:30:01 51°15.029 2°54.176 338.3 12.8 327 8
2004-03-22 09:30:05 51°15.041 2°54.164 338.2 12.8 327 8.1
2004-03-22 09:30:11 51°15.058 2°54.145 338.1 12.9 327 8.4
2004-03-22 09:30:15 51°15.071 2°54.133 338 12.9 327 8.2
2004-03-22 09:30:21 51°15.089 2°54.115 338.4 12.9 327 8.2
2004-03-22 09:30:25 51°15.101 2°54.103 338.8 13 329 8.5
2004-03-22 09:30:31 51°15.12 2°54.086 339.9 12.9 330 8.4
2004-03-22 09:30:36 51°15.136 2°54.073 341.1 12.9 332 8.3
2004-03-22 09:30:41 51°15.152 2°54.06 342.7 12.9 332 8.5
2004-03-22 09:30:45 51°15.164 2°54.049 343.2 12.9 332 8.5
2004-03-22 09:30:51 51°15.183 2°54.033 343.3 13 332 8.7
2004-03-22 09:30:55 51°15.196 2°54.022 343.2 13 333 8.6
2004-03-22 09:31:01 51°15.215 2°54.006 342.6 12.8 332 8.6
2004-03-22 09:31:05 51°15.228 2°53.994 343 13 332 8.8
2004-03-22 09:31:11 51°15.247 2°53.979 342.5 13 333 8.6
2004-03-22 09:31:16 51°15.263 2°53.965 342.5 13 331 9.1
2004-03-22 09:31:21 51°15.279 2°53.951 342.7 12.8 332 8.8
2004-03-22 09:31:25 51°15.291 2°53.94 342.3 13 331 9.2
2004-03-22 09:31:31 51°15.31 2°53.924 342 13.1 331 9.3
2004-03-22 09:31:35 51°15.323 2°53.912 342.5 13.1 330 8.8
2004-03-22 09:31:41 51°15.342 2°53.896 341.9 13.1 331 9.2
2004-03-22 09:31:45 51°15.355 2°53.885 341.9 13 331 9.4
2004-03-22 09:31:51 51°15.374 2°53.868 342.3 13 331 9.3
2004-03-22 09:31:56 51°15.39 2°53.855 342.5 13.1 332 9.5
2004-03-22 09:32:01 51°15.406 2°53.841 342.7 13.1 330 9.8
2004-03-22 09:32:05 51°15.419 2°53.83 342.8 13.1 333 9.6
2004-03-22 09:32:11 51°15.438 2°53.813 343.2 13.2 332 9.5
2004-03-22 09:32:16 51°15.454 2°53.8 342.2 13 333 9.7
2004-03-22 09:32:21 51°15.47 2°53.787 342.9 12.9 333 9.8
2004-03-22 09:32:25 51°15.482 2°53.775 342.5 13.1 330 9.8
2004-03-22 09:32:31 51°15.502 2°53.76 342.9 13.1 332 10
2004-03-22 09:32:35 51°15.514 2°53.748 342.6 13.1 331 9.6
2004-03-22 09:32:41 51°15.534 2°53.732 342.1 12.9 333 10.1
2004-03-22 09:32:45 51°15.546 2°53.721 342.7 13.1 331 10.1
2004-03-22 09:32:51 51°15.565 2°53.705 342.5 13 331 10
2004-03-22 09:32:55 51°15.578 2°53.694 342.4 13 331 10.3
2004-03-22 09:33:01 51°15.597 2°53.677 342.3 13.1 331 10.3
2004-03-22 09:33:05 51°15.61 2°53.666 341.9 13.1 331 10.3
2004-03-22 09:33:11 51°15.629 2°53.649 341.8 13.2 331 10.5
2004-03-22 09:33:16 51°15.645 2°53.634 342 13.1 331 10.3
2004-03-22 09:33:21 51°15.66 2°53.62 341.9 13.1 331 10.6
2004-03-22 09:33:25 51°15.673 2°53.609 342 13.1 330 10.5
2004-03-22 09:33:31 51°15.692 2°53.592 342.3 13.2 331 10.5
2004-03-22 09:33:35 51°15.705 2°53.581 342.2 13.2 332 10.9
2004-03-22 09:33:41 51°15.724 2°53.564 341.8 12.8 331 10.3
2004-03-22 09:33:45 51°15.736 2°53.553 342.5 12.9 331 10.9
2004-03-22 09:33:51 51°15.755 2°53.537 342.8 12.8 332 10.6
2004-03-22 09:33:56 51°15.771 2°53.523 342.1 12.9 331 10.7
2004-03-22 09:34:01 51°15.786 2°53.509 343 12.9 331 10.8
2004-03-22 09:34:05 51°15.799 2°53.497 341.8 13 329 10.9
2004-03-22 09:34:11 51°15.817 2°53.48 341.9 13 330 10.9
2004-03-22 09:34:16 51°15.833 2°53.466 342.3 13.1 330 11
2004-03-22 09:34:21 51°15.849 2°53.451 341.9 13.1 330 11.2
2004-03-22 09:34:25 51°15.861 2°53.44 341.4 13 330 10.9
2004-03-22 09:34:31 51°15.88 2°53.423 342.1 13 331 11.4
2004-03-22 09:34:36 51°15.896 2°53.41 342.5 12.8 331 11.1
2004-03-22 09:34:41 51°15.912 2°53.395 342.9 12.8 331 11
2004-03-22 09:34:45 51°15.924 2°53.385 342.5 12.9 331 11.4
2004-03-22 09:34:51 51°15.942 2°53.368 342.6 13 331 11.2
2004-03-22 09:34:55 51°15.955 2°53.357 342.3 12.9 331 11.4
2004-03-22 09:35:01 51°15.974 2°53.341 342.5 12.9 331 11.1
2004-03-22 09:35:05 51°15.986 2°53.33 342.4 12.9 331 11.2
2004-03-22 09:35:11 51°16.005 2°53.313 342.7 12.9 332 11.5
2004-03-22 09:35:16 51°16.021 2°53.3 342.4 12.9 332 11.5
2004-03-22 09:35:21 51°16.037 2°53.287 342.6 12.8 332 11.4
2004-03-22 09:35:25 51°16.049 2°53.277 342.6 12.8 332 11.6
2004-03-22 09:35:31 51°16.069 2°53.261 343 13 332 11.7
2004-03-22 09:35:35 51°16.082 2°53.251 343.1 13 333 11.7
2004-03-22 09:35:41 51°16.101 2°53.237 343.2 12.7 335 11.3
2004-03-22 09:35:46 51°16.117 2°53.224 344.4 12.8 334 11.7
2004-03-22 09:35:51 51°16.133 2°53.212 344 12.9 335 11.4
2004-03-22 09:35:56 51°16.149 2°53.2 344.2 12.9 334 11.8
2004-03-22 09:36:01 51°16.164 2°53.188 343.6 12.7 335 11.4
2004-03-22 09:36:05 51°16.177 2°53.178 344 12.7 334 11.5
2004-03-22 09:36:11 51°16.197 2°53.163 344.5 12.8 335 11.7
2004-03-22 09:36:16 51°16.212 2°53.151 344.6 12.8 334 11.9
2004-03-22 09:36:21 51°16.228 2°53.139 344.4 12.7 335 11.7
2004-03-22 09:36:25 51°16.241 2°53.129 344.4 12.7 335 11.7
2004-03-22 09:36:31 51°16.261 2°53.115 344.7 12.8 335 11.8
2004-03-22 09:36:35 51°16.274 2°53.106 345.3 12.8 335 11.9
2004-03-22 09:36:41 51°16.293 2°53.091 344.8 12.9 335 11.7
2004-03-22 09:36:45 51°16.306 2°53.081 344.9 12.9 335 11.9
2004-03-22 09:36:51 51°16.326 2°53.066 344.6 13.1 334 12
2004-03-22 09:36:55 51°16.338 2°53.057 344.1 12.8 335 11.6
2004-03-22 09:37:01 51°16.358 2°53.042 344.7 12.8 335 11.4
2004-03-22 09:37:05 51°16.371 2°53.033 344.6 12.8 335 12
2004-03-22 09:37:11 51°16.39 2°53.02 344.7 12.7 336 11.7
2004-03-22 09:37:16 51°16.406 2°53.008 344.9 12.6 336 11.6
2004-03-22 09:37:21 51°16.422 2°52.996 345.7 12.8 335 11.9
2004-03-22 09:37:25 51°16.435 2°52.986 344.2 12.8 334 11.9
2004-03-22 09:37:31 51°16.454 2°52.972 344 12.7 334 11.9
2004-03-22 09:37:35 51°16.467 2°52.962 344.2 12.8 335 12
2004-03-22 09:37:41 51°16.486 2°52.948 344.2 12.9 335 12
2004-03-22 09:37:45 51°16.499 2°52.939 344.5 12.8 335 11.7
2004-03-22 09:37:51 51°16.518 2°52.925 344.7 12.8 335 11.9
2004-03-22 09:37:56 51°16.535 2°52.913 344.6 12.7 336 11.3
2004-03-22 09:38:01 51°16.55 2°52.902 344.9 12.7 336 11.5
2004-03-22 09:38:05 51°16.563 2°52.893 344.6 12.4 336 11.4
2004-03-22 09:38:11 51°16.582 2°52.879 344.9 12.4 335 11.5
2004-03-22 09:38:16 51°16.598 2°52.868 344.7 12.5 335 10.9
2004-03-22 09:38:21 51°16.614 2°52.856 344.6 12.6 334 10.9
2004-03-22 09:38:25 51°16.626 2°52.847 344.2 12.6 336 10.8
2004-03-22 09:38:31 51°16.645 2°52.833 344.1 12.3 335 11.2
2004-03-22 09:38:36 51°16.661 2°52.821 344.7 12.4 334 10.5
2004-03-22 09:38:41 51°16.676 2°52.809 344 12.6 335 10.7
2004-03-22 09:38:45 51°16.689 2°52.8 343.4 12.4 334 10.1
2004-03-22 09:38:51 51°16.708 2°52.786 344.6 12.5 335 10.4
2004-03-22 09:38:55 51°16.72 2°52.776 344.6 12.5 335 10.1
2004-03-22 09:39:01 51°16.739 2°52.762 344.6 12.4 335 10.1
2004-03-22 09:39:05 51°16.752 2°52.752 344 12.4 335 10
2004-03-22 09:39:11 51°16.77 2°52.738 344 12.6 334 10
2004-03-22 09:39:16 51°16.786 2°52.726 343.8 12.4 334 9.3
2004-03-22 09:39:21 51°16.802 2°52.714 344.1 12.5 334 9.2
2004-03-22 09:39:26 51°16.817 2°52.702 344.4 12.5 335 9.6
2004-03-22 09:39:31 51°16.833 2°52.69 344 12.5 334 9.3
2004-03-22 09:39:36 51°16.849 2°52.678 344 12.5 335 8.9
2004-03-22 09:39:41 51°16.864 2°52.666 344.2 12.5 335 8.8
2004-03-22 09:39:45 51°16.877 2°52.656 343.9 12.5 334 9.1
2004-03-22 09:39:51 51°16.895 2°52.642 343.6 12.5 335 8.9
2004-03-22 09:39:56 51°16.911 2°52.629 344 12.6 334 9.1
2004-03-22 09:40:01 51°16.927 2°52.617 344 12.7 334 9.3
2004-03-22 09:40:05 51°16.939 2°52.607 344 12.8 334 9.6
2004-03-22 09:40:11 51°16.959 2°52.592 344 12.7 334 9.8
2004-03-22 09:40:15 51°16.971 2°52.583 344 12.8 334 10
2004-03-22 09:40:21 51°16.991 2°52.568 344 12.6 335 9.5
2004-03-22 09:40:25 51°17.003 2°52.559 344.5 12.5 335 9.7
2004-03-22 09:40:31 51°17.022 2°52.545 344.9 12.5 335 8.8
2004-03-22 09:40:36 51°17.038 2°52.535 345.2 12.3 337 9.1
2004-03-22 09:40:41 51°17.054 2°52.523 345.5 12.4 336 9.2
2004-03-22 09:40:45 51°17.066 2°52.514 345.4 12.5 334 9.3
2004-03-22 09:40:51 51°17.085 2°52.499 344.6 12.5 333 9.5
2004-03-22 09:40:55 51°17.098 2°52.489 344.5 12.6 333 9.4
2004-03-22 09:41:01 51°17.116 2°52.474 343.7 12.7 332 9.3
2004-03-22 09:41:05 51°17.129 2°52.464 343.7 12.7 334 9.5
2004-03-22 09:41:11 51°17.148 2°52.449 343.5 12.6 333 9.7
2004-03-22 09:41:16 51°17.163 2°52.437 343.8 12.6 334 9.4
2004-03-22 09:41:21 51°17.179 2°52.425 344.4 12.4 334 9.3
2004-03-22 09:41:25 51°17.192 2°52.416 344.3 12.6 334 9.9
2004-03-22 09:41:31 51°17.211 2°52.402 344.7 12.4 335 9.2
2004-03-22 09:41:35 51°17.223 2°52.393 344.6 12.6 334 9.5
2004-03-22 09:41:41 51°17.242 2°52.379 344.7 12.6 335 9.9
2004-03-22 09:41:45 51°17.254 2°52.369 344.4 12.4 334 9.6
2004-03-22 09:41:51 51°17.273 2°52.354 344.6 12.5 334 10.1
2004-03-22 09:41:56 51°17.289 2°52.341 344 12.7 332 10
2004-03-22 09:42:01 51°17.304 2°52.327 342.6 12.7 330 10.2
2004-03-22 09:42:06 51°17.319 2°52.312 340.4 12.5 330 9.8
2004-03-22 09:42:11 51°17.333 2°52.298 340 12.4 329 10.5
2004-03-22 09:42:16 51°17.347 2°52.282 338.2 12.5 327 10.2
2004-03-22 09:42:21 51°17.362 2°52.266 337.7 12.6 327 9.9
2004-03-22 09:42:25 51°17.374 2°52.254 336.8 12.6 326 10.1
2004-03-22 09:42:31 51°17.391 2°52.235 336.3 12.7 326 10
2004-03-22 09:42:35 51°17.403 2°52.222 335.9 12.8 325 10.3
2004-03-22 09:42:41 51°17.42 2°52.204 336.3 12.7 326 10.4
2004-03-22 09:42:46 51°17.435 2°52.188 336.7 12.5 326 10
2004-03-22 09:42:51 51°17.449 2°52.172 336.5 12.7 325 10.1
2004-03-22 09:42:56 51°17.463 2°52.156 336.7 12.6 326 10.3
2004-03-22 09:43:01 51°17.478 2°52.14 335.4 12.5 324 9.8
2004-03-22 09:43:05 51°17.489 2°52.127 334.8 12.5 324 10.1
2004-03-22 09:43:11 51°17.505 2°52.105 333.2 12.7 321 10.2
2004-03-22 09:43:16 51°17.519 2°52.088 332.4 12.7 321 10.1
2004-03-22 09:43:21 51°17.533 2°52.07 332.6 12.7 322 10.2
2004-03-22 09:43:25 51°17.544 2°52.056 332.2 12.7 322 10
2004-03-22 09:43:31 51°17.561 2°52.035 333.1 12.6 323 10
2004-03-22 09:43:35 51°17.572 2°52.022 332.5 12.8 322 9.8
2004-03-22 09:43:41 51°17.588 2°52.001 332.8 12.5 322 10.2
2004-03-22 09:43:45 51°17.599 2°51.987 332.4 12.7 321 9.9
2004-03-22 09:43:51 51°17.615 2°51.965 332.2 12.7 321 10.2
2004-03-22 09:43:56 51°17.629 2°51.948 332.1 12.7 321 10.1
2004-03-22 09:44:01 51°17.643 2°51.93 332.1 12.8 321 10.4
2004-03-22 09:44:05 51°17.654 2°51.916 332.3 12.8 321 9.8
2004-03-22 09:44:11 51°17.671 2°51.896 332.7 12.9 322 9.7
2004-03-22 09:44:16 51°17.685 2°51.878 333.1 12.9 323 10.1
2004-03-22 09:44:21 51°17.699 2°51.86 333.5 12.9 323 10.1
2004-03-22 09:44:25 51°17.71 2°51.846 332.7 12.8 322 9.9
2004-03-22 09:44:31 51°17.726 2°51.825 333 12.7 322 10
2004-03-22 09:44:35 51°17.738 2°51.812 332.6 12.8 321 10.1
2004-03-22 09:44:41 51°17.754 2°51.792 332.5 12.7 324 10
2004-03-22 09:44:45 51°17.766 2°51.778 333.6 12.7 323 9.7
2004-03-22 09:44:51 51°17.782 2°51.758 333.6 12.7 324 10.1
2004-03-22 09:44:56 51°17.796 2°51.741 333.1 12.6 323 9.5
2004-03-22 09:45:01 51°17.81 2°51.724 333.6 12.6 323 10
2004-03-22 09:45:05 51°17.821 2°51.71 333.1 12.7 322 9.6
2004-03-22 09:45:11 51°17.838 2°51.689 332.8 12.7 322 10
2004-03-22 09:45:15 51°17.849 2°51.676 332.6 12.7 323 9.7
2004-03-22 09:45:21 51°17.865 2°51.654 333.1 12.6 321 9.9
2004-03-22 09:45:25 51°17.875 2°51.639 331 12.7 318 9.9
2004-03-22 09:45:31 51°17.891 2°51.615 328.7 12.8 317 10
2004-03-22 09:45:36 51°17.903 2°51.594 326.6 13 314 10
2004-03-22 09:45:41 51°17.915 2°51.573 325.1 13 314 10.3
2004-03-22 09:45:45 51°17.925 2°51.557 324.2 13 313 10
2004-03-22 09:45:51 51°17.939 2°51.531 323.7 12.9 312 10.6
2004-03-22 09:45:55 51°17.949 2°51.515 323 12.8 312 10.2
2004-03-22 09:46:01 51°17.963 2°51.489 323.2 13 312 10.4
2004-03-22 09:46:06 51°17.975 2°51.467 322.9 13.1 311 10.5
2004-03-22 09:46:11 51°17.988 2°51.447 322.9 12.9 313 10.9
2004-03-22 09:46:16 51°17.999 2°51.425 323.7 13 312 10.6
2004-03-22 09:46:21 51°18.012 2°51.404 323.5 13 313 10.9
2004-03-22 09:46:25 51°18.022 2°51.386 323.2 13.1 312 11.1
2004-03-22 09:46:31 51°18.036 2°51.36 323.1 13 313 10.9
2004-03-22 09:46:35 51°18.046 2°51.343 323 13.1 312 11.3
2004-03-22 09:46:41 51°18.061 2°51.318 323.6 12.9 313 10.9
2004-03-22 09:46:46 51°18.073 2°51.296 323.6 13 313 11.3
2004-03-22 09:46:51 51°18.085 2°51.275 323.5 13.1 313 11.7
2004-03-22 09:46:55 51°18.095 2°51.258 323.4 13.1 313 11.5
2004-03-22 09:47:01 51°18.11 2°51.233 323.8 13.1 313 11.5
2004-03-22 09:47:05 51°18.119 2°51.215 323.4 13.2 312 11.8
2004-03-22 09:47:11 51°18.134 2°51.19 323.4 13.1 312 12.1
2004-03-22 09:47:15 51°18.144 2°51.173 323.5 13.1 312 12
2004-03-22 09:47:21 51°18.158 2°51.147 323.4 13.1 312 11.8
2004-03-22 09:47:25 51°18.168 2°51.13 323 13.1 313 12.7
2004-03-22 09:47:31 51°18.183 2°51.104 322.7 12.8 312 12.3
2004-03-22 09:47:36 51°18.195 2°51.083 322.9 12.9 312 12.1
2004-03-22 09:47:40 51°18.204 2°51.066 322.8 12.9 311 12.5
2004-03-22 09:47:45 51°18.216 2°51.044 322.9 13 311 12.5
2004-03-22 09:47:51 51°18.23 2°51.017 322.6 13.1 311 12.7
2004-03-22 09:47:55 51°18.24 2°51 322.5 13.2 311 12.8
2004-03-22 09:48:01 51°18.255 2°50.973 322.6 13.3 311 12.9
2004-03-22 09:48:06 51°18.266 2°50.951 322.3 13.3 310 12.7
2004-03-22 09:48:11 51°18.278 2°50.929 322.2 13.3 310 12.9
2004-03-22 09:48:15 51°18.288 2°50.911 322.2 13.2 311 13.1
2004-03-22 09:48:21 51°18.303 2°50.884 322.5 13.1 311 13
2004-03-22 09:48:25 51°18.312 2°50.866 322.7 13.1 310 13.3
2004-03-22 09:48:31 51°18.327 2°50.84 322.2 13.3 311 13.1
2004-03-22 09:48:36 51°18.339 2°50.818 322.8 13.3 311 13.2
2004-03-22 09:48:41 51°18.351 2°50.795 322.6 13.3 311 13.3
2004-03-22 09:48:45 51°18.36 2°50.778 322.4 13.3 311 13.3
2004-03-22 09:48:51 51°18.375 2°50.751 322.8 13.3 311 13.6
2004-03-22 09:48:56 51°18.387 2°50.728 322.4 13.3 311 13.4
2004-03-22 09:49:01 51°18.399 2°50.706 322.6 13.4 310 13.9
2004-03-22 09:49:06 51°18.411 2°50.683 322.5 13.2 311 13.5
2004-03-22 09:49:11 51°18.423 2°50.661 322.4 13.3 311 14.1
2004-03-22 09:49:16 51°18.435 2°50.64 322.7 12.8 312 13.5
2004-03-22 09:49:20 51°18.444 2°50.624 323.8 12.8 313 13.9
2004-03-22 09:49:26 51°18.458 2°50.599 324 12.8 313 14.1
2004-03-22 09:49:31 51°18.47 2°50.577 323.4 12.8 312 13.4
2004-03-22 09:49:36 51°18.481 2°50.556 323.6 12.9 310 14.1
2004-03-22 09:49:41 51°18.493 2°50.534 323.3 12.8 310 13.9
2004-03-22 09:49:45 51°18.502 2°50.517 323 12.7 311 13.8
2004-03-22 09:49:51 51°18.516 2°50.491 322.9 12.7 311 14.2
2004-03-22 09:49:56 51°18.528 2°50.47 323.3 12.8 311 14.1
2004-03-22 09:50:01 51°18.54 2°50.448 323.5 12.9 310 14.4
2004-03-22 09:50:05 51°18.55 2°50.431 322.9 13 311 14.4
2004-03-22 09:50:11 51°18.564 2°50.405 323.2 13 312 14.3
2004-03-22 09:50:15 51°18.574 2°50.388 323.4 13.1 312 13.9
2004-03-22 09:50:21 51°18.588 2°50.361 323.4 13.2 312 14.3
2004-03-22 09:50:25 51°18.598 2°50.344 322.9 13 311 13.9
2004-03-22 09:50:31 51°18.612 2°50.317 322.9 12.9 311 14.1
2004-03-22 09:50:35 51°18.621 2°50.299 322.4 13.1 309 14.3
2004-03-22 09:50:41 51°18.635 2°50.273 320.9 13.1 309 13.6
2004-03-22 09:50:45 51°18.644 2°50.255 321 12.9 310 14.2
2004-03-22 09:50:51 51°18.657 2°50.227 320.7 13.1 308 13.7
2004-03-22 09:50:56 51°18.669 2°50.204 319.5 13.3 307 13.8
2004-03-22 09:51:01 51°18.68 2°50.18 318.9 13.3 307 13.6
2004-03-22 09:51:05 51°18.689 2°50.161 318.6 13.4 308 13.3
2004-03-22 09:51:11 51°18.702 2°50.133 318.2 13.4 307 13.8
2004-03-22 09:51:15 51°18.711 2°50.114 318.5 13.4 307 13.4
2004-03-22 09:51:21 51°18.725 2°50.085 318.4 13.4 307 13.2
2004-03-22 09:51:26 51°18.736 2°50.062 318.6 13.3 308 13.3
2004-03-22 09:51:31 51°18.748 2°50.038 318.4 13.3 307 12.8
2004-03-22 09:51:35 51°18.757 2°50.019 318.6 13.5 308 12.8
2004-03-22 09:51:41 51°18.771 2°49.991 318.6 13.5 308 12.8
2004-03-22 09:51:45 51°18.78 2°49.972 318.8 13.4 308 12.2
2004-03-22 09:51:51 51°18.794 2°49.944 318.8 13.4 308 12.6
2004-03-22 09:51:56 51°18.805 2°49.921 319.2 13.5 309 12.7
2004-03-22 09:52:01 51°18.816 2°49.898 319.3 13.3 308 12.1
2004-03-22 09:52:05 51°18.826 2°49.88 319.3 13.3 309 12.3
2004-03-22 09:52:11 51°18.84 2°49.852 318.9 13.3 308 11.6
2004-03-22 09:52:15 51°18.849 2°49.834 319.1 13.4 309 11.6
2004-03-22 09:52:21 51°18.863 2°49.806 319.4 13.3 309 11.3
2004-03-22 09:52:25 51°18.872 2°49.788 319 13.4 308 11
2004-03-22 09:52:31 51°18.886 2°49.76 319 13.4 309 11
2004-03-22 09:52:35 51°18.895 2°49.742 319.3 13.3 309 11
2004-03-22 09:52:41 51°18.909 2°49.714 318.9 13.4 309 10.7
2004-03-22 09:52:45 51°18.919 2°49.696 319.5 13.4 310 10.7
2004-03-22 09:52:51 51°18.933 2°49.669 319.6 13.4 309 10.4
2004-03-22 09:52:55 51°18.942 2°49.651 319.8 13.5 310 10.4
2004-03-22 09:53:00 51°18.954 2°49.628 319.2 13.4 309 10.5
2004-03-22 09:53:06 51°18.968 2°49.6 319.2 13.4 309 10.5
2004-03-22 09:53:11 51°18.979 2°49.577 318.7 13.3 309 11
2004-03-22 09:53:15 51°18.989 2°49.558 318.8 13.4 309 10.8
2004-03-22 09:53:21 51°19.003 2°49.53 319 13.6 309 11.1
2004-03-22 09:53:26 51°19.014 2°49.506 318.7 13.5 308 11.2
2004-03-22 09:53:31 51°19.026 2°49.483 318.2 13.6 309 11.1
2004-03-22 09:53:36 51°19.038 2°49.46 318.7 13.4 308 11.5
2004-03-22 09:53:41 51°19.05 2°49.436 318.1 13.3 309 11
2004-03-22 09:53:45 51°19.059 2°49.418 318.8 13.5 309 11.4
2004-03-22 09:53:51 51°19.073 2°49.39 319.3 13.5 309 12
2004-03-22 09:53:55 51°19.082 2°49.371 318.5 13.6 307 12.2
2004-03-22 09:54:00 51°19.093 2°49.346 317.1 13.7 307 12.6
2004-03-22 09:54:05 51°19.104 2°49.321 316.4 13.7 306 12.5
2004-03-22 09:54:11 51°19.117 2°49.291 315.8 13.7 306 12.4
2004-03-22 09:54:15 51°19.126 2°49.271 315.2 13.7 305 12.6
2004-03-22 09:54:21 51°19.139 2°49.241 314.8 13.6 304 12.3
2004-03-22 09:54:25 51°19.148 2°49.222 314.5 13.6 305 12.6
2004-03-22 09:54:31 51°19.16 2°49.192 314.7 13.5 304 12.4
2004-03-22 09:54:35 51°19.169 2°49.172 315.1 13.4 304 12.5
2004-03-22 09:54:41 51°19.181 2°49.143 314.3 13.5 304 12.3
2004-03-22 09:54:45 51°19.19 2°49.123 314.9 13.5 304 12
2004-03-22 09:54:51 51°19.202 2°49.094 315.2 13.3 304 12.3
2004-03-22 09:54:56 51°19.213 2°49.07 314.6 13.1 304 12.1
2004-03-22 09:55:01 51°19.223 2°49.046 314.8 13.1 305 13.5
2004-03-22 09:55:05 51°19.231 2°49.027 315.3 13.2 305 13.7
2004-03-22 09:55:11 51°19.244 2°48.998 315.6 13.4 305 14.1
2004-03-22 09:55:16 51°19.254 2°48.973 315.2 13.5 303 14.8
2004-03-22 09:55:21 51°19.265 2°48.948 314.7 13.3 304 14.8
2004-03-22 09:55:25 51°19.273 2°48.929 314.4 13.5 304 15.1
2004-03-22 09:55:31 51°19.285 2°48.9 314.9 13.2 305 15.2
2004-03-22 09:55:36 51°19.296 2°48.876 315 13.3 306 15.7
2004-03-22 09:55:41 51°19.306 2°48.852 315.9 13 305 15.7
2004-03-22 09:55:45 51°19.315 2°48.833 315.2 13.2 304 15.6
2004-03-22 09:55:51 51°19.327 2°48.804 314.8 13.2 305 15.8
2004-03-22 09:55:56 51°19.338 2°48.779 315.1 13.3 304 15.9
2004-03-22 09:56:01 51°19.348 2°48.754 314.7 13.4 304 16.3
2004-03-22 09:56:05 51°19.356 2°48.734 314.6 13.4 304 16.5
2004-03-22 09:56:11 51°19.368 2°48.705 315 13.6 304 16.5
2004-03-22 09:56:16 51°19.379 2°48.68 314.6 13.4 304 16.5
2004-03-22 09:56:21 51°19.39 2°48.655 314.8 13.4 304 16.9
2004-03-22 09:56:26 51°19.4 2°48.63 315.1 13.4 304 17.3
2004-03-22 09:56:31 51°19.41 2°48.606 314.7 13.3 303 17.5
2004-03-22 09:56:36 51°19.42 2°48.581 314.9 13.4 303 17.4
2004-03-22 09:56:41 51°19.431 2°48.556 314.8 13.4 303 17.5
2004-03-22 09:56:45 51°19.439 2°48.536 314.9 13.5 303 18
2004-03-22 09:56:51 51°19.451 2°48.506 314.6 13.5 303 18
2004-03-22 09:56:55 51°19.459 2°48.486 314.6 13.6 304 18
2004-03-22 09:57:01 51°19.472 2°48.456 315 13.5 304 18.7
2004-03-22 09:57:05 51°19.48 2°48.437 315.4 13.5 304 18.7
2004-03-22 09:57:11 51°19.492 2°48.407 315.2 13.4 303 18.7
2004-03-22 09:57:15 51°19.5 2°48.387 314.8 13.2 304 19.3
2004-03-22 09:57:21 51°19.51 2°48.356 312.8 13.2 299 19.1
2004-03-22 09:57:27 51°19.52 2°48.324 310.6 13.5 298 19.8
2004-03-22 09:57:31 51°19.527 2°48.303 309.1 13.3 297 19.9
2004-03-22 09:57:35 51°19.533 2°48.281 307.7 13.6 295 19.9
2004-03-22 09:57:40 51°19.541 2°48.253 306.5 13.7 294 20.1
2004-03-22 09:57:45 51°19.549 2°48.225 305.6 13.8 294 20.5
2004-03-22 09:57:51 51°19.558 2°48.191 305.4 13.9 293 20.5
2004-03-22 09:57:55 51°19.564 2°48.167 304.6 14 292 21.2
2004-03-22 09:58:01 51°19.573 2°48.134 304.8 13.8 293 21.1
2004-03-22 09:58:05 51°19.578 2°48.111 304.7 14 292 21
2004-03-22 09:58:11 51°19.587 2°48.077 304.8 13.9 293 21.4
2004-03-22 09:58:15 51°19.592 2°48.053 303.5 13.9 291 21.4
2004-03-22 09:58:21 51°19.6 2°48.018 302.1 14.1 289 21.5
2004-03-22 09:58:26 51°19.606 2°47.988 300.1 14 289 21.5
2004-03-22 09:58:31 51°19.611 2°47.958 299.4 14.2 287 21.9
2004-03-22 09:58:36 51°19.617 2°47.928 298.7 14.2 286 21.6
2004-03-22 09:58:40 51°19.621 2°47.904 297.6 14 285 21.3
2004-03-22 09:58:45 51°19.626 2°47.874 297.5 13.8 285 21.9
2004-03-22 09:58:51 51°19.63 2°47.837 296.1 14.1 283 21.6
2004-03-22 09:58:55 51°19.633 2°47.812 293.9 14.3 281 21.9
2004-03-22 09:59:00 51°19.637 2°47.782 292.1 14.2 280 21.5
2004-03-22 09:59:05 51°19.64 2°47.75 291.2 14.2 280 22
2004-03-22 09:59:11 51°19.643 2°47.713 289.7 14.1 278 21.8
2004-03-22 09:59:16 51°19.645 2°47.681 289.1 14.3 277 21.6
2004-03-22 09:59:21 51°19.648 2°47.65 288.5 14.4 277 22
2004-03-22 09:59:25 51°19.651 2°47.625 288.7 14.4 280 22
2004-03-22 09:59:31 51°19.655 2°47.587 290.3 14.5 280 21.7
2004-03-22 09:59:35 51°19.658 2°47.562 291.2 14.5 282 21.9
2004-03-22 09:59:41 51°19.662 2°47.525 292.2 14.3 280 21.5
2004-03-22 09:59:45 51°19.666 2°47.501 292.5 14.1 283 21.9
2004-03-22 09:59:51 51°19.67 2°47.463 292.6 14.3 281 21.6
2004-03-22 09:59:56 51°19.675 2°47.433 292.8 14.2 284 21.5
2004-03-22 10:00:01 51°19.679 2°47.402 293.4 14.4 282 21.9
2004-03-22 10:00:05 51°19.683 2°47.378 293.3 14 283 21.4
2004-03-22 10:00:11 51°19.688 2°47.34 293.2 14.3 283 21.6
2004-03-22 10:00:16 51°19.692 2°47.31 293.8 14.3 283 21.3
2004-03-22 10:00:21 51°19.696 2°47.278 293.8 14.4 282 21.5
2004-03-22 10:00:25 51°19.7 2°47.254 293.6 14.3 283 21.3
2004-03-22 10:00:31 51°19.705 2°47.217 293.4 14.2 282 21.6
2004-03-22 10:00:35 51°19.708 2°47.192 293.3 14.3 282 21.3
2004-03-22 10:00:41 51°19.713 2°47.155 292.7 14.3 282 21.3
2004-03-22 10:00:45 51°19.716 2°47.13 292.8 14.1 282 21.5
2004-03-22 10:00:51 51°19.721 2°47.094 292.7 14.1 282 21.4
2004-03-22 10:00:56 51°19.725 2°47.063 293 14.1 283 21.1
2004-03-22 10:01:01 51°19.73 2°47.033 293.4 14.1 282 21.3
2004-03-22 10:01:05 51°19.733 2°47.008 293.7 14.2 283 21
2004-03-22 10:01:11 51°19.739 2°46.971 294 14.2 283 20.9
2004-03-22 10:01:15 51°19.742 2°46.947 294.2 14.1 284 20.5
2004-03-22 10:01:21 51°19.748 2°46.91 293.8 14.1 283 20.5
2004-03-22 10:01:26 51°19.752 2°46.88 294.3 14.1 285 20.5
2004-03-22 10:01:31 51°19.757 2°46.849 294.4 14.3 284 20.3
2004-03-22 10:01:36 51°19.762 2°46.819 293.8 14.1 285 20.5
2004-03-22 10:01:41 51°19.767 2°46.788 294.6 14.1 283 20.1
2004-03-22 10:01:46 51°19.772 2°46.758 294.4 14.2 285 19.3
2004-03-22 10:01:51 51°19.776 2°46.728 294.6 14.1 283 18.5
2004-03-22 10:01:56 51°19.78 2°46.697 293.6 14.2 282 19.4
2004-03-22 10:02:01 51°19.784 2°46.666 292.2 14.3 281 19.4
2004-03-22 10:02:06 51°19.788 2°46.635 292.2 14.2 282 18.6
2004-03-22 10:02:11 51°19.792 2°46.605 291.8 14.1 282 19.2
2004-03-22 10:02:15 51°19.795 2°46.58 291.8 14.1 282 18.8
2004-03-22 10:02:21 51°19.8 2°46.544 292.1 14.2 281 17.2
2004-03-22 10:02:25 51°19.803 2°46.519 292.1 14.1 283 18.2
2004-03-22 10:02:31 51°19.808 2°46.483 292.3 14.1 282 17.4
2004-03-22 10:02:36 51°19.813 2°46.453 291.9 14 283 17.1
2004-03-22 10:02:41 51°19.816 2°46.422 292.4 13.9 281 16.9
2004-03-22 10:02:45 51°19.82 2°46.398 292.2 14 283 16.1
2004-03-22 10:02:51 51°19.825 2°46.361 292.2 14 282 15.4
2004-03-22 10:02:56 51°19.83 2°46.331 292.1 14 283 16.5
2004-03-22 10:03:01 51°19.833 2°46.301 292.1 14 283 16.6
2004-03-22 10:03:05 51°19.837 2°46.276 291.7 14.1 282 16
2004-03-22 10:03:11 51°19.842 2°46.239 291.9 14.2 283 15
2004-03-22 10:03:16 51°19.846 2°46.209 291.8 14.2 281 14.8
2004-03-22 10:03:21 51°19.851 2°46.179 291.3 14.1 283 14.4
2004-03-22 10:03:25 51°19.854 2°46.155 292.5 14.1 283 13.8
2004-03-22 10:03:31 51°19.858 2°46.118 291.8 14 282 12.9
2004-03-22 10:03:36 51°19.861 2°46.087 289.5 14 278 12.7
2004-03-22 10:03:41 51°19.864 2°46.056 287.5 13.8 278 13.1
2004-03-22 10:03:45 51°19.866 2°46.032 286.4 13.8 277 13.6
2004-03-22 10:03:51 51°19.868 2°45.995 284.8 14 275 13.6
2004-03-22 10:03:56 51°19.87 2°45.964 284.3 14.1 276 12.7
2004-03-22 10:04:01 51°19.871 2°45.933 284.1 14 275 12.2
2004-03-22 10:04:06 51°19.873 2°45.903 283.4 14 275 13.5
2004-03-22 10:04:11 51°19.874 2°45.871 282.5 14.2 273 12
2004-03-22 10:04:16 51°19.874 2°45.839 281 14.3 272 13.8
2004-03-22 10:04:21 51°19.875 2°45.808 280.2 14.3 272 12.2
2004-03-22 10:04:25 51°19.876 2°45.782 280.3 14.2 273 14.2
2004-03-22 10:04:31 51°19.876 2°45.743 279.2 14.5 270 15
2004-03-22 10:04:36 51°19.877 2°45.711 279.8 14.6 272 11.8
2004-03-22 10:04:41 51°19.878 2°45.68 280 14.5 272 13.3
2004-03-22 10:04:45 51°19.878 2°45.654 280.3 14.3 273 14
2004-03-22 10:04:51 51°19.879 2°45.616 280.5 14.3 271 13.8
2004-03-22 10:04:55 51°19.88 2°45.59 280.1 14.5 273 14.9
2004-03-22 10:05:01 51°19.881 2°45.551 280.1 14.6 273 14
2004-03-22 10:05:05 51°19.882 2°45.525 280.2 14.5 273 14.2
2004-03-22 10:05:11 51°19.883 2°45.487 280.5 14.6 273 15.8
2004-03-22 10:05:16 51°19.884 2°45.454 280.6 14.6 272 17.5
2004-03-22 10:05:21 51°19.885 2°45.422 280 14.6 273 17.7
2004-03-22 10:05:25 51°19.885 2°45.397 280.3 14.5 272 18.5
2004-03-22 10:05:31 51°19.886 2°45.359 279.5 14.4 271 18.6
2004-03-22 10:05:36 51°19.887 2°45.328 279.9 14.2 272 19.7
2004-03-22 10:05:41 51°19.887 2°45.297 280.5 14 273 19.8
2004-03-22 10:05:45 51°19.888 2°45.272 280.7 14 273 20.9
2004-03-22 10:05:51 51°19.889 2°45.236 280.9 13.8 273 20.6
2004-03-22 10:05:55 51°19.889 2°45.211 280.7 13.9 272 21.4
2004-03-22 10:06:01 51°19.89 2°45.174 280.5 13.9 272 21.2
2004-03-22 10:06:05 51°19.891 2°45.149 280.6 14.1 272 21.7
2004-03-22 10:06:11 51°19.892 2°45.112 280.6 14 272 21.9
2004-03-22 10:06:16 51°19.893 2°45.081 280.8 14.1 273 22
2004-03-22 10:06:21 51°19.894 2°45.049 281.2 14.1 272 22.1
2004-03-22 10:06:25 51°19.894 2°45.023 280.8 14.3 272 22
2004-03-22 10:06:31 51°19.896 2°44.985 280.4 14.3 273 22.4
2004-03-22 10:06:36 51°19.896 2°44.953 281.1 14.3 271 22.2
2004-03-22 10:06:41 51°19.895 2°44.921 279.7 14.3 270 22.5
2004-03-22 10:06:45 51°19.895 2°44.896 277.9 14.4 268 22.7
2004-03-22 10:06:51 51°19.893 2°44.858 276.3 14.3 266 22.5
2004-03-22 10:06:56 51°19.892 2°44.826 275 14.2 266 22.7
2004-03-22 10:07:01 51°19.89 2°44.795 274.3 14.3 264 22.6
2004-03-22 10:07:05 51°19.889 2°44.769 273.3 14.4 266 22.6
2004-03-22 10:07:11 51°19.886 2°44.731 273.3 14.4 265 22.6
2004-03-22 10:07:16 51°19.885 2°44.699 273.3 14.5 265 22.7
2004-03-22 10:07:21 51°19.883 2°44.667 272.7 14.6 265 23
2004-03-22 10:07:25 51°19.882 2°44.641 273.1 14.6 266 23.1
2004-03-22 10:07:31 51°19.88 2°44.603 273.6 14.5 265 23.6
2004-03-22 10:07:35 51°19.878 2°44.577 273.4 14.6 265 23.4
2004-03-22 10:07:41 51°19.876 2°44.539 273.4 14.6 266 23.7
2004-03-22 10:07:45 51°19.875 2°44.514 273.2 14.4 265 23.4
2004-03-22 10:07:51 51°19.872 2°44.476 273.6 14.3 264 23.8
2004-03-22 10:07:56 51°19.87 2°44.445 273.1 14.1 264 23.5
2004-03-22 10:08:01 51°19.868 2°44.413 272.5 14.1 264 23.7
2004-03-22 10:08:05 51°19.867 2°44.388 272.9 14.2 265 23.9
2004-03-22 10:08:11 51°19.865 2°44.35 273.2 14.4 265 23.9
2004-03-22 10:08:16 51°19.863 2°44.319 273.7 14.2 264 24.3
2004-03-22 10:08:21 51°19.861 2°44.287 273.5 14.1 265 24
2004-03-22 10:08:25 51°19.86 2°44.262 273.6 14.3 265 23.9
2004-03-22 10:08:31 51°19.859 2°44.224 273.6 14.3 267 24.3
2004-03-22 10:08:35 51°19.857 2°44.199 274.6 14.3 264 24.4
2004-03-22 10:08:41 51°19.855 2°44.161 273.3 14.4 265 24.1
2004-03-22 10:08:45 51°19.854 2°44.136 273.9 14.3 266 24.5
2004-03-22 10:08:51 51°19.851 2°44.099 273.8 14 264 24
2004-03-22 10:08:55 51°19.849 2°44.075 272.7 14 261 24.4
2004-03-22 10:09:01 51°19.844 2°44.038 269.2 14.1 259 24
2004-03-22 10:09:05 51°19.84 2°44.013 267 14.2 258 24
2004-03-22 10:09:11 51°19.834 2°43.976 264.9 14.3 257 23.2
2004-03-22 10:09:15 51°19.83 2°43.951 263.7 14.5 255 23.6
2004-03-22 10:09:21 51°19.824 2°43.914 262.7 14.6 254 23.5
2004-03-22 10:09:25 51°19.819 2°43.89 262 14.6 254 23.6
2004-03-22 10:09:31 51°19.811 2°43.853 259.9 14.6 251 24.2
2004-03-22 10:09:36 51°19.804 2°43.822 258.2 14.7 251 24.4
2004-03-22 10:09:41 51°19.797 2°43.792 257.9 14.7 249 24.7
2004-03-22 10:09:46 51°19.789 2°43.762 257.6 14.6 249 24.2
2004-03-22 10:09:51 51°19.782 2°43.732 255.5 14.6 248 23.8
2004-03-22 10:09:56 51°19.773 2°43.702 255.5 14.6 246 24.7
2004-03-22 10:10:01 51°19.764 2°43.674 253.3 14.6 244 24.8
2004-03-22 10:10:06 51°19.755 2°43.645 250.1 14.5 243 25
2004-03-22 10:10:11 51°19.745 2°43.616 248.7 14.7 242 25.5
2004-03-22 10:10:15 51°19.737 2°43.593 248.6 14.7 242 25.6
2004-03-22 10:10:21 51°19.725 2°43.559 247.6 14.8 240 25.5
2004-03-22 10:10:25 51°19.716 2°43.537 246.1 14.9 240 25.3
2004-03-22 10:10:31 51°19.704 2°43.502 245.8 14.9 241 25.2
2004-03-22 10:10:36 51°19.694 2°43.474 245.8 14.8 239 25.6
2004-03-22 10:10:41 51°19.683 2°43.446 246.6 14.8 241 25.4
2004-03-22 10:10:46 51°19.672 2°43.418 245.8 14.8 238 25.4
2004-03-22 10:10:51 51°19.661 2°43.39 244.4 15 236 25.5
2004-03-22 10:10:56 51°19.649 2°43.364 242.3 14.6 234 25.2
2004-03-22 10:11:01 51°19.636 2°43.338 238.6 14.9 231 25.4
2004-03-22 10:11:06 51°19.623 2°43.312 238 15.1 232 25.1
2004-03-22 10:11:11 51°19.61 2°43.286 236 15 232 25.3
2004-03-22 10:11:16 51°19.596 2°43.261 235.8 15 229 25.2
2004-03-22 10:11:21 51°19.583 2°43.235 235.1 15 231 25.2
2004-03-22 10:11:25 51°19.573 2°43.215 235.5 14.8 231 25.2
2004-03-22 10:11:31 51°19.556 2°43.184 235.1 15.1 228 25.2
2004-03-22 10:11:36 51°19.543 2°43.158 234.4 15 231 25.1
2004-03-22 10:11:41 51°19.529 2°43.134 235.3 14.9 226 25.4
2004-03-22 10:11:45 51°19.519 2°43.113 235.3 14.9 230 24.6
2004-03-22 10:11:51 51°19.503 2°43.084 234.6 14.7 230 24
2004-03-22 10:11:56 51°19.489 2°43.06 235.1 14.7 229 24
2004-03-22 10:12:01 51°19.476 2°43.033 234.4 14.8 231 24.1
2004-03-22 10:12:05 51°19.466 2°43.014 236.2 14.6 232 24.7
2004-03-22 10:12:11 51°19.449 2°42.984 235.1 15.2 227 24.8
2004-03-22 10:12:16 51°19.437 2°42.958 235.2 14.7 233 24.7
2004-03-22 10:12:21 51°19.423 2°42.933 235.1 15 227 24.4
2004-03-22 10:12:25 51°19.413 2°42.912 234.6 15.2 232 24.7
2004-03-22 10:12:31 51°19.397 2°42.882 237.2 14.8 228 24.3
2004-03-22 10:12:35 51°19.387 2°42.861 234.5 14.9 232 24.4
2004-03-22 10:12:41 51°19.37 2°42.831 235.9 14.9 229 24.5
2004-03-22 10:12:46 51°19.358 2°42.805 236.1 14.8 231 24.8
2004-03-22 10:12:51 51°19.344 2°42.781 237 14.7 231 24.1
2004-03-22 10:12:55 51°19.334 2°42.76 234.4 14.8 228 24.1
2004-03-22 10:13:01 51°19.318 2°42.73 235.8 14.8 231 24.2
2004-03-22 10:13:07 51°19.303 2°42.699 236.5 14.8 232 23.9
2004-03-22 10:13:11 51°19.293 2°42.678 236.1 14.9 232 24.4
2004-03-22 10:13:15 51°19.282 2°42.658 237.2 14.9 232 24.2
2004-03-22 10:13:21 51°19.267 2°42.628 237 14.8 233 24.2
2004-03-22 10:13:25 51°19.256 2°42.608 234.7 15 226 23.5
2004-03-22 10:13:31 51°19.241 2°42.577 236.2 14.7 230 23.8
2004-03-22 10:13:35 51°19.23 2°42.557 235.9 14.6 230 23.8
2004-03-22 10:13:41 51°19.215 2°42.526 235.9 14.5 233 23.6
2004-03-22 10:13:45 51°19.204 2°42.506 235.6 14.8 229 23.5
2004-03-22 10:13:51 51°19.189 2°42.476 236.4 14.7 232 23.4
2004-03-22 10:13:56 51°19.176 2°42.451 236.4 14.7 229 23.5
2004-03-22 10:14:01 51°19.163 2°42.425 236.5 14.7 232 23.9
2004-03-22 10:14:05 51°19.153 2°42.404 236 14.9 230 23.8
2004-03-22 10:14:11 51°19.138 2°42.374 237.8 14.7 230 23.5
2004-03-22 10:14:16 51°19.125 2°42.348 236.2 14.8 232 23.3
2004-03-22 10:14:21 51°19.113 2°42.321 236.5 15 233 23.8
2004-03-22 10:14:25 51°19.102 2°42.302 237.4 14.9 232 23.4
2004-03-22 10:14:31 51°19.086 2°42.27 236.3 14.9 231 23.6
2004-03-22 10:14:36 51°19.074 2°42.244 236.8 15 232 23.6
2004-03-22 10:14:41 51°19.061 2°42.219 237.4 14.9 232 23.5
2004-03-22 10:14:45 51°19.049 2°42.198 235.8 15.1 229 23.2
2004-03-22 10:14:51 51°19.034 2°42.168 236.6 14.4 231 23.5
2004-03-22 10:14:55 51°19.023 2°42.149 236.5 14.6 229 22.9
2004-03-22 10:15:00 51°19.011 2°42.122 235.3 14.9 233 23
2004-03-22 10:15:05 51°18.998 2°42.096 237.7 15 233 23
2004-03-22 10:15:11 51°18.983 2°42.066 236.7 14.8 231 23.2
2004-03-22 10:15:15 51°18.971 2°42.045 236.4 15.2 230 23
2004-03-22 10:15:21 51°18.957 2°42.014 236.8 15.2 233 22.8
2004-03-22 10:15:27 51°18.94 2°41.985 236.3 14.9 229 22.5
2004-03-22 10:15:31 51°18.93 2°41.963 234.6 15 229 22.2
2004-03-22 10:15:35 51°18.92 2°41.943 237.1 14.8 231 22.4
2004-03-22 10:15:41 51°18.904 2°41.912 236.7 14.8 231 21.8
2004-03-22 10:15:45 51°18.894 2°41.891 236.8 14.9 233 22.3
2004-03-22 10:15:51 51°18.878 2°41.861 237.8 14.8 230 22
2004-03-22 10:15:56 51°18.866 2°41.837 236.6 14.7 230 22.6
2004-03-22 10:16:01 51°18.852 2°41.812 237.3 14.5 232 21.1
2004-03-22 10:16:05 51°18.843 2°41.792 235.2 14.5 233 21.1
2004-03-22 10:16:11 51°18.827 2°41.761 236.9 14.9 230 21.1
2004-03-22 10:16:16 51°18.815 2°41.734 236.6 15.1 233 20
2004-03-22 10:16:21 51°18.802 2°41.709 238 14.8 234 21.2
2004-03-22 10:16:25 51°18.791 2°41.688 237.3 15 230 21.1
2004-03-22 10:16:31 51°18.776 2°41.656 237.1 15.1 233 20.1
2004-03-22 10:16:35 51°18.766 2°41.636 237.3 14.9 232 20.3
2004-03-22 10:16:41 51°18.751 2°41.604 237.3 15 233 20.7
2004-03-22 10:16:45 51°18.741 2°41.583 238.8 15 233 20
2004-03-22 10:16:51 51°18.726 2°41.552 238.2 14.7 230 20.8
2004-03-22 10:16:56 51°18.713 2°41.526 237.6 14.8 232 19.8
2004-03-22 10:17:01 51°18.7 2°41.502 237 14.8 229 19.1
2004-03-22 10:17:05 51°18.69 2°41.481 236.4 14.7 233 19.4
2004-03-22 10:17:11 51°18.674 2°41.45 236.4 14.8 230 20
2004-03-22 10:17:16 51°18.662 2°41.425 238 14.6 233 20
2004-03-22 10:17:21 51°18.649 2°41.399 237.2 14.9 231 18.7
2004-03-22 10:17:25 51°18.64 2°41.377 237.7 14.8 234 17.3
2004-03-22 10:17:31 51°18.624 2°41.347 238.4 15 230 18.6
2004-03-22 10:17:35 51°18.614 2°41.325 236.9 14.9 234 20
2004-03-22 10:17:41 51°18.599 2°41.294 236.8 14.9 232 19.5
2004-03-22 10:17:45 51°18.589 2°41.272 236.8 15.2 233 18.6
2004-03-22 10:17:51 51°18.574 2°41.241 238 14.9 233 19.9
2004-03-22 10:17:55 51°18.563 2°41.22 238 15 231 18.3
2004-03-22 10:18:01 51°18.549 2°41.189 237.7 14.8 234 18.3
2004-03-22 10:18:05 51°18.538 2°41.169 237.8 14.7 232 19.5
2004-03-22 10:18:11 51°18.523 2°41.137 235.9 14.9 230 17.6
2004-03-22 10:18:15 51°18.513 2°41.116 237.7 15.2 233 19.7
2004-03-22 10:18:21 51°18.498 2°41.085 238 14.7 232 18
2004-03-22 10:18:25 51°18.487 2°41.065 236.1 14.8 230 18
2004-03-22 10:18:31 51°18.472 2°41.033 236.1 14.8 233 16.3
2004-03-22 10:18:36 51°18.459 2°41.007 237.6 14.8 230 16.6
2004-03-22 10:18:41 51°18.447 2°40.98 236.9 15 233 16.9
2004-03-22 10:18:46 51°18.435 2°40.954 237.8 14.9 233 17.4
2004-03-22 10:18:51 51°18.422 2°40.928 238 14.8 233 14
2004-03-22 10:18:56 51°18.409 2°40.902 236.9 15.1 232 16.1
2004-03-22 10:19:01 51°18.397 2°40.874 237.1 15.1 235 14.4
2004-03-22 10:19:05 51°18.387 2°40.854 238.3 14.9 232 16
2004-03-22 10:19:11 51°18.372 2°40.823 237.4 14.8 232 12.6
2004-03-22 10:19:15 51°18.362 2°40.801 236.8 14.9 233 16.2
2004-03-22 10:19:21 51°18.347 2°40.77 237.5 15 233 17.9
2004-03-22 10:19:25 51°18.337 2°40.748 237.5 15 233 19.4
2004-03-22 10:19:31 51°18.321 2°40.718 238.7 14.8 231 20.1
2004-03-22 10:19:35 51°18.312 2°40.695 236.6 15.2 235 20.8
2004-03-22 10:19:41 51°18.296 2°40.665 237.3 15.3 230 18.6
2004-03-22 10:19:45 51°18.287 2°40.643 237.3 15.1 234 17.6
2004-03-22 10:19:51 51°18.271 2°40.613 236.7 14.8 232 18.2
2004-03-22 10:19:56 51°18.258 2°40.587 237.2 15.1 232 19.6
2004-03-22 10:20:01 51°18.246 2°40.559 237.1 15.1 234 20
2004-03-22 10:20:05 51°18.236 2°40.538 238.1 14.9 235 17.4
2004-03-22 10:20:11 51°18.221 2°40.507 237.5 15 232 19.1
2004-03-22 10:20:15 51°18.212 2°40.485 238.1 14.9 235 19.5
2004-03-22 10:20:21 51°18.196 2°40.454 237.9 14.9 232 19.8
2004-03-22 10:20:25 51°18.187 2°40.433 237.7 14.8 234 20.5
2004-03-22 10:20:31 51°18.171 2°40.402 237 14.9 231 19.5
2004-03-22 10:20:35 51°18.162 2°40.38 237.1 14.9 236 16.6
2004-03-22 10:20:41 51°18.146 2°40.35 237.8 14.7 231 18.3
2004-03-22 10:20:45 51°18.137 2°40.328 236.7 15 232 18.7
2004-03-22 10:20:51 51°18.122 2°40.296 238.1 14.7 233 18.9
2004-03-22 10:20:55 51°18.112 2°40.275 238.1 14.9 233 18.7
2004-03-22 10:21:01 51°18.097 2°40.243 237.7 15 233 19
2004-03-22 10:21:05 51°18.087 2°40.223 237 14.9 231 19.3
2004-03-22 10:21:11 51°18.072 2°40.191 236.4 14.9 231 19.5
2004-03-22 10:21:15 51°18.062 2°40.172 236.4 14.8 234 19.9
2004-03-22 10:21:21 51°18.047 2°40.14 235.5 14.8 232 19.5
2004-03-22 10:21:25 51°18.037 2°40.12 236.6 14.9 233 18.6
2004-03-22 10:21:31 51°18.022 2°40.089 236.6 14.5 234 19
2004-03-22 10:21:36 51°18.011 2°40.065 236.9 13.9 233 19.3
2004-03-22 10:21:41 51°18 2°40.041 237.4 13.4 233 19.2
2004-03-22 10:21:46 51°17.989 2°40.019 238.2 12.9 234 20
2004-03-22 10:21:51 51°17.979 2°39.997 237.6 12.4 231 19.9
2004-03-22 10:21:56 51°17.969 2°39.977 237.3 12 232 19.9
2004-03-22 10:22:01 51°17.959 2°39.956 236.7 11.7 230 20.1
2004-03-22 10:22:06 51°17.948 2°39.938 237.1 11.4 228 20.4
2004-03-22 10:22:11 51°17.939 2°39.918 235.1 11.1 233 20.6
2004-03-22 10:22:16 51°17.929 2°39.9 235.5 10.9 228 21.1
2004-03-22 10:22:21 51°17.919 2°39.882 234.4 11 228 19.5
2004-03-22 10:22:25 51°17.912 2°39.868 233.2 10.6 229 19.9
2004-03-22 10:22:31 51°17.899 2°39.849 232.3 10.7 225 19.8
2004-03-22 10:22:36 51°17.889 2°39.832 231.5 10.3 227 19.7
2004-03-22 10:22:41 51°17.879 2°39.816 230.2 10.2 225 19.7
2004-03-22 10:22:46 51°17.869 2°39.8 229.5 10.2 224 19.7
2004-03-22 10:22:51 51°17.859 2°39.785 229.5 10.1 225 20.1
2004-03-22 10:22:55 51°17.851 2°39.772 229.3 10.1 225 18.6
2004-03-22 10:23:01 51°17.839 2°39.754 229.3 10 224 19.3
2004-03-22 10:23:05 51°17.831 2°39.742 228.4 10 223 20.2
2004-03-22 10:23:11 51°17.82 2°39.725 228.3 9.5 224 20.4
2004-03-22 10:23:16 51°17.811 2°39.711 227.9 9 224 20.5
2004-03-22 10:23:21 51°17.803 2°39.698 228.2 9 224 19
2004-03-22 10:23:25 51°17.798 2°39.687 232.9 7.9 231 17.7
2004-03-22 10:23:31 51°17.791 2°39.67 238.4 7.3 237 17.5
2004-03-22 10:23:36 51°17.787 2°39.657 244.7 6.8 241 17.6
2004-03-22 10:23:41 51°17.783 2°39.645 248.8 6.4 241 17.9
2004-03-22 10:23:46 51°17.78 2°39.633 253.2 6 244 17.9
2004-03-22 10:23:51 51°17.777 2°39.622 257 5.4 249 17.4
2004-03-22 10:23:55 51°17.775 2°39.614 260.3 5.2 248 16.7
2004-03-22 10:24:01 51°17.772 2°39.602 262.6 4.7 250 16.5
2004-03-22 10:24:06 51°17.77 2°39.594 264.7 4.2 249 16.7
2004-03-22 10:24:11 51°17.768 2°39.588 267.2 4.2 249 16.7
2004-03-22 10:24:16 51°17.767 2°39.582 270.7 3 247 16.9
2004-03-22 10:24:21 51°17.765 2°39.577 274.2 2.7 246 17
2004-03-22 10:24:25 51°17.764 2°39.573 277.2 2.3 243 17
2004-03-22 10:24:31 51°17.763 2°39.569 279.9 2.1 240 17.2
2004-03-22 10:24:36 51°17.761 2°39.568 283.5 1.6 214 17.1
2004-03-22 10:24:41 51°17.759 2°39.567 286.3 1.4 198 17.1
2004-03-22 10:24:45 51°17.757 2°39.566 288.5 1.4 200 17.2
2004-03-22 10:24:51 51°17.755 2°39.565 289.4 1.3 206 17.1
2004-03-22 10:24:55 51°17.754 2°39.564 289.7 1.3 194 17.1
2004-03-22 10:25:01 51°17.752 2°39.563 290.1 1.2 195 17.1
2004-03-22 10:25:06 51°17.75 2°39.563 290.3 1.3 200 -999
2004-03-22 10:25:11 51°17.748 2°39.562 290.1 1.3 191 -999
2004-03-22 10:25:17 51°17.746 2°39.561 289.5 1.3 195 -999
2004-03-22 10:25:21 51°17.745 2°39.561 288.9 1.1 189 -999
2004-03-22 10:25:27 51°17.743 2°39.561 288.5 1.2 184 -999
2004-03-22 10:25:31 51°17.742 2°39.561 288.3 1.1 185 -999
2004-03-22 10:25:36 51°17.74 2°39.561 288.3 1.1 181 5.5
2004-03-22 10:25:41 51°17.739 2°39.561 288.1 1 178 5.8
2004-03-22 10:25:46 51°17.737 2°39.561 288 1.1 182 17.5
2004-03-22 10:25:51 51°17.736 2°39.561 287.7 1.2 180 17.7
2004-03-22 10:25:56 51°17.734 2°39.561 287.8 1.2 178 -999